Time;durP1;ratioP1;P1;durP2;ratioP2;P2;SDS_P1;SDS_P2;PMS_P1;PMS_P2;Temp;Humidity;BMP_temperature;BMP_pressure;BME280_temperature;BME280_humidity;BME280_pressure;Samples;Min_cycle;Max_cycle;Signal;HPM_P1;HPM_P2
2021/05/11 00:02:10;;;;;;;4.37;3.97;;;12.30;99.90;;;;;;5023680;28;20468;-70
2021/05/11 00:04:36;;;;;;;4.93;4.43;;;12.50;99.90;;;;;;5023891;28;20862;-69
2021/05/11 00:07:04;;;;;;;6.50;5.70;;;12.40;99.90;;;;;;5023855;28;20467;-70
2021/05/11 00:09:30;;;;;;;6.23;5.10;;;12.40;99.90;;;;;;5104931;22;20498;-70
2021/05/11 00:11:56;;;;;;;6.23;5.63;;;12.40;99.90;;;;;;5047035;28;20456;-70
2021/05/11 00:14:22;;;;;;;6.57;5.70;;;12.40;99.90;;;;;;5048207;28;20495;-69
2021/05/11 00:16:49;;;;;;;6.30;5.60;;;12.30;99.90;;;;;;5050499;28;20823;-68
2021/05/11 00:19:16;;;;;;;6.00;5.10;;;12.30;99.90;;;;;;5051543;28;20466;-69
2021/05/11 00:21:43;;;;;;;5.30;4.80;;;12.30;99.90;;;;;;5051648;28;20959;-70
2021/05/11 00:24:10;;;;;;;5.70;4.97;;;12.30;99.90;;;;;;5051799;28;20464;-70
2021/05/11 00:26:38;;;;;;;5.97;5.40;;;12.30;99.90;;;;;;5052027;28;20492;-71
2021/05/11 00:29:04;;;;;;;6.13;5.53;;;12.30;99.90;;;;;;5051014;28;20467;-70
2021/05/11 00:31:31;;;;;;;5.70;5.20;;;12.30;99.90;;;;;;5051874;28;21077;-70
2021/05/11 00:33:57;;;;;;;5.47;4.97;;;12.30;99.90;;;;;;5051482;28;20472;-71
2021/05/11 00:36:24;;;;;;;6.53;5.90;;;12.30;99.90;;;;;;5051830;28;20485;-70
2021/05/11 00:38:50;;;;;;;6.33;5.57;;;12.30;99.90;;;;;;5051067;28;20501;-71
2021/05/11 00:41:17;;;;;;;5.37;4.80;;;12.30;99.90;;;;;;5051605;28;20475;-71
2021/05/11 00:43:44;;;;;;;5.20;4.70;;;12.30;99.90;;;;;;5051550;28;20462;-70
2021/05/11 00:46:12;;;;;;;6.33;5.50;;;12.30;99.90;;;;;;5051344;28;20471;-71
2021/05/11 00:48:39;;;;;;;5.53;5.03;;;12.20;99.90;;;;;;5051118;28;20462;-70
2021/05/11 00:51:06;;;;;;;4.17;3.77;;;12.30;99.90;;;;;;5050979;28;20474;-71
2021/05/11 00:53:34;;;;;;;3.50;3.20;;;12.30;99.90;;;;;;5051592;28;20459;-70
2021/05/11 00:56:00;;;;;;;3.77;3.40;;;12.30;99.90;;;;;;5051015;28;20487;-70
2021/05/11 00:58:28;;;;;;;3.93;3.47;;;12.30;99.90;;;;;;5051028;28;20463;-70
2021/05/11 01:00:54;;;;;;;4.27;3.87;;;12.30;99.90;;;;;;5050954;28;21018;-69
2021/05/11 01:03:20;;;;;;;4.40;4.00;;;12.30;99.90;;;;;;5050962;28;20463;-70
2021/05/11 01:05:47;;;;;;;5.50;4.80;;;12.30;99.90;;;;;;5050982;28;20973;-70
2021/05/11 01:08:14;;;;;;;6.00;5.30;;;12.30;99.90;;;;;;5050409;28;20463;-70
2021/05/11 01:10:40;;;;;;;5.77;5.17;;;12.30;99.90;;;;;;5050824;28;20483;-71
2021/05/11 01:13:06;;;;;;;6.30;5.70;;;12.30;99.90;;;;;;5050718;28;20531;-71
2021/05/11 01:15:36;;;;;;;6.43;5.77;;;12.30;99.90;;;;;;5050958;28;20532;-70
2021/05/11 01:18:06;;;;;;;5.90;5.20;;;12.20;99.90;;;;;;5050113;28;20463;-70
2021/05/11 01:20:36;;;;;;;6.53;5.13;;;12.20;99.90;;;;;;5050839;28;20533;-70
2021/05/11 01:25:54;;;;;;;6.07;5.23;;;12.20;99.90;;;;;;5024127;28;20806;-70
2021/05/11 01:28:25;;;;;;;5.37;4.60;;;12.10;99.90;;;;;;5050184;28;20517;-70
2021/05/11 01:47:43;;;;;;;5.40;4.67;;;12.30;99.90;;;;;;5050250;28;20435;-70
2021/05/11 01:50:15;;;;;;;6.10;5.03;;;12.20;99.90;;;;;;5049820;28;20479;-70
2021/05/11 01:52:52;;;;;;;6.17;5.37;;;12.20;99.90;;;;;;5050179;28;20456;-71
2021/05/11 02:23:01;;;;;;;9.00;6.80;;;12.10;99.90;;;;;;5049485;28;20443;-70
2021/05/11 02:25:28;;;;;;;8.50;7.53;;;12.10;99.90;;;;;;5049709;28;20829;-70
2021/05/11 02:27:55;;;;;;;9.13;7.30;;;12.10;99.90;;;;;;5048714;28;20553;-71
2021/05/11 02:30:22;;;;;;;9.60;7.27;;;12.10;99.90;;;;;;5049559;28;20486;-70
2021/05/11 02:32:48;;;;;;;10.17;7.50;;;12.10;99.90;;;;;;5049437;28;20466;-70
2021/05/11 02:35:16;;;;;;;10.50;8.20;;;12.00;99.90;;;;;;5049080;28;20490;-70
2021/05/11 02:37:43;;;;;;;10.07;8.40;;;12.10;99.90;;;;;;5049005;28;20466;-70
2021/05/11 02:40:10;;;;;;;11.50;8.63;;;12.10;99.90;;;;;;5048485;28;20487;-70
2021/05/11 02:42:38;;;;;;;12.40;8.63;;;12.10;99.90;;;;;;5049445;28;20478;-70
2021/05/11 02:45:10;;;;;;;10.97;8.53;;;12.00;99.90;;;;;;5048864;28;21047;-70
2021/05/11 02:47:47;;;;;;;11.07;9.10;;;12.00;99.90;;;;;;5049096;28;20464;-70
2021/05/11 02:50:14;;;;;;;10.50;8.27;;;12.10;99.90;;;;;;5049228;28;20482;-71
2021/05/11 02:52:40;;;;;;;11.00;8.20;;;12.00;99.90;;;;;;5049001;28;20459;-69
2021/05/11 02:55:07;;;;;;;10.57;8.00;;;12.00;99.90;;;;;;5048691;28;20476;-69
2021/05/11 02:57:33;;;;;;;11.47;8.33;;;12.00;99.90;;;;;;5048996;28;20827;-70
2021/05/11 02:59:59;;;;;;;8.57;7.17;;;12.00;99.90;;;;;;5048333;28;20480;-71
2021/05/11 03:02:28;;;;;;;9.50;7.87;;;11.90;99.90;;;;;;5048944;28;20467;-70
2021/05/11 03:04:55;;;;;;;9.40;7.53;;;11.90;99.90;;;;;;5048862;28;20546;-71
2021/05/11 03:07:21;;;;;;;9.40;7.53;;;11.90;99.90;;;;;;5048950;28;20494;-70
2021/05/11 03:09:47;;;;;;;9.10;7.47;;;11.90;99.90;;;;;;5048047;28;20494;-69
2021/05/11 03:12:13;;;;;;;11.73;7.83;;;11.80;99.90;;;;;;5048710;28;20463;-69
2021/05/11 03:14:40;;;;;;;9.50;6.83;;;11.80;99.90;;;;;;5048599;28;20479;-70
2021/05/11 03:17:06;;;;;;;9.60;7.43;;;11.80;99.90;;;;;;5048950;28;20463;-71
2021/05/11 03:19:33;;;;;;;11.60;7.30;;;11.80;99.90;;;;;;5048082;28;20479;-71
2021/05/11 03:21:59;;;;;;;10.53;7.73;;;11.80;99.90;;;;;;5048709;28;20455;-71
2021/05/11 03:24:25;;;;;;;9.43;6.93;;;11.80;99.90;;;;;;5048518;28;20470;-69
2021/05/11 03:26:52;;;;;;;10.13;7.60;;;11.80;99.90;;;;;;5048690;28;20464;-70
2021/05/11 03:29:18;;;;;;;12.27;8.37;;;11.80;99.90;;;;;;5048849;28;20463;-71
2021/05/11 03:31:45;;;;;;;9.33;7.33;;;11.80;99.90;;;;;;5048107;28;20456;-68
2021/05/11 03:34:11;;;;;;;9.03;6.97;;;11.80;99.90;;;;;;5048866;28;20513;-68
2021/05/11 03:36:38;;;;;;;9.63;7.33;;;11.80;99.90;;;;;;5048740;28;20467;-70
2021/05/11 03:39:06;;;;;;;11.60;8.27;;;11.70;99.90;;;;;;5048213;28;20502;-70
2021/05/11 03:41:37;;;;;;;10.63;8.10;;;11.80;99.90;;;;;;5049046;28;20463;-69
2021/05/11 03:44:08;;;;;;;12.77;8.73;;;11.80;99.90;;;;;;5048761;28;20460;-71
2021/05/11 03:46:36;;;;;;;10.40;8.10;;;11.80;99.90;;;;;;5049106;28;20558;-71
2021/05/11 03:49:04;;;;;;;12.83;8.23;;;11.80;99.90;;;;;;5047769;28;20459;-71
2021/05/11 03:51:31;;;;;;;11.10;7.97;;;11.80;99.90;;;;;;5053242;28;20505;-69
2021/05/11 03:53:58;;;;;;;11.47;8.30;;;11.80;99.90;;;;;;5052820;28;20471;-70
2021/05/11 03:56:24;;;;;;;10.93;8.40;;;11.80;99.90;;;;;;5052929;28;20491;-70
2021/05/11 03:58:51;;;;;;;12.20;8.67;;;11.90;99.90;;;;;;5052310;28;20201;-70
2021/05/11 04:01:17;;;;;;;11.83;8.20;;;11.90;99.90;;;;;;5051711;28;20486;-69
2021/05/11 04:03:43;;;;;;;13.07;10.40;;;11.90;99.90;;;;;;5052678;28;20463;-70
2021/05/11 04:06:10;;;;;;;14.10;9.77;;;11.90;99.90;;;;;;5052314;28;20459;-69
2021/05/11 04:08:41;;;;;;;14.47;10.73;;;12.00;99.90;;;;;;5051585;28;20463;-70
2021/05/11 04:11:31;;;;;;;15.53;10.17;;;12.00;99.90;;;;;;5052387;28;20974;-69
2021/05/11 04:16:53;;;;;;;15.03;10.60;;;12.10;99.90;;;;;;5010175;28;20467;-70
2021/05/11 04:19:19;;;;;;;15.33;10.50;;;12.10;99.90;;;;;;5041291;28;20463;-70
2021/05/11 04:21:45;;;;;;;14.57;10.17;;;12.10;99.90;;;;;;5052159;28;20475;-69
2021/05/11 04:24:12;;;;;;;14.00;10.80;;;12.10;99.90;;;;;;5051937;28;20455;-68
2021/05/11 04:26:39;;;;;;;15.70;11.43;;;12.20;99.90;;;;;;5052236;28;20455;-70
2021/05/11 04:29:05;;;;;;;14.00;9.43;;;12.20;99.90;;;;;;5060940;28;20489;-69
2021/05/11 04:31:34;;;;;;;12.85;9.73;;;12.20;99.90;;;;;;5071646;28;20462;-69
2021/05/11 04:34:00;;;;;;;12.40;9.50;;;12.20;99.90;;;;;;5070452;28;20625;-70
2021/05/11 04:36:26;;;;;;;12.87;8.77;;;12.20;99.90;;;;;;5071763;28;20486;-69
2021/05/11 04:38:52;;;;;;;12.40;8.83;;;12.20;99.90;;;;;;5071434;28;20462;-69
2021/05/11 04:41:18;;;;;;;10.70;8.73;;;12.30;99.90;;;;;;5072026;28;20485;-68
2021/05/11 04:43:48;;;;;;;10.77;8.60;;;12.20;99.90;;;;;;5071950;28;20583;-69
2021/05/11 04:46:15;;;;;;;12.87;9.67;;;12.20;99.90;;;;;;5071953;28;20553;-70
2021/05/11 04:48:41;;;;;;;16.33;9.90;;;12.30;99.90;;;;;;5071146;28;20465;-70
2021/05/11 04:51:08;;;;;;;10.87;8.50;;;12.20;99.90;;;;;;5071584;28;20492;-69
2021/05/11 04:53:34;;;;;;;13.57;9.03;;;12.20;99.90;;;;;;5071586;28;20470;-70
2021/05/11 04:56:00;;;;;;;13.37;9.13;;;12.30;99.90;;;;;;5071436;28;20493;-70
2021/05/11 04:58:26;;;;;;;14.40;9.87;;;12.30;99.90;;;;;;5071240;28;20469;-69
2021/05/11 05:01:00;;;;;;;14.17;9.30;;;12.30;99.90;;;;;;5070870;28;20489;-68
2021/05/11 05:03:27;;;;;;;14.33;10.07;;;12.30;99.90;;;;;;5071612;28;20548;-69
2021/05/11 05:05:54;;;;;;;15.30;11.03;;;12.30;99.90;;;;;;5071589;28;20466;-68
2021/05/11 05:08:20;;;;;;;13.80;10.40;;;12.30;99.90;;;;;;5071476;28;20458;-68
2021/05/11 05:10:46;;;;;;;13.83;10.23;;;12.30;99.90;;;;;;5071082;28;20493;-69
2021/05/11 05:13:18;;;;;;;14.37;10.13;;;12.30;99.90;;;;;;5071489;28;20924;-69
2021/05/11 05:15:44;;;;;;;14.20;10.17;;;12.40;99.90;;;;;;5071356;28;20482;-69
2021/05/11 05:18:12;;;;;;;15.20;11.33;;;12.40;99.90;;;;;;5070681;28;20469;-69
2021/05/11 05:20:38;;;;;;;13.93;10.87;;;12.40;99.90;;;;;;5071309;28;20493;-68
2021/05/11 05:23:04;;;;;;;15.30;10.80;;;12.40;99.90;;;;;;5070949;28;20454;-69
2021/05/11 05:25:30;;;;;;;13.63;10.00;;;12.40;99.90;;;;;;5071349;28;20501;-69
2021/05/11 05:27:59;;;;;;;16.30;11.60;;;12.40;99.90;;;;;;5070352;28;20462;-69
2021/05/11 05:30:25;;;;;;;15.93;12.10;;;12.40;99.90;;;;;;5071359;28;20571;-70
2021/05/11 05:32:53;;;;;;;15.77;11.48;;;12.40;99.90;;;;;;5070961;28;20458;-69
2021/05/11 05:35:20;;;;;;;16.67;10.90;;;12.50;99.90;;;;;;5070741;28;20216;-68
2021/05/11 05:37:47;;;;;;;16.87;10.40;;;12.50;99.90;;;;;;5070431;28;20465;-68
2021/05/11 05:40:18;;;;;;;19.60;10.60;;;12.60;99.90;;;;;;5070757;28;20505;-69
2021/05/11 05:42:46;;;;;;;13.93;11.00;;;12.70;99.90;;;;;;5070906;28;20469;-70
2021/05/11 05:45:13;;;;;;;16.40;10.63;;;12.70;99.90;;;;;;5070594;28;20455;-70
2021/05/11 05:47:50;;;;;;;14.53;11.23;;;12.70;99.90;;;;;;5064788;28;20469;-69
2021/05/11 05:50:16;;;;;;;13.73;9.90;;;12.70;99.90;;;;;;5067388;28;20482;-70
2021/05/11 05:52:44;;;;;;;13.90;10.70;;;12.80;99.90;;;;;;5058772;28;20459;-69
2021/05/11 05:55:12;;;;;;;12.20;9.37;;;12.80;99.90;;;;;;5062204;28;20482;-70
2021/05/11 05:57:39;;;;;;;12.90;10.43;;;12.80;99.90;;;;;;5070079;28;20557;-70
2021/05/11 06:00:06;;;;;;;11.60;10.17;;;12.80;99.90;;;;;;5070200;28;20532;-69
2021/05/11 06:02:32;;;;;;;11.53;9.40;;;12.80;99.90;;;;;;5068765;28;20459;-69
2021/05/11 06:04:59;;;;;;;12.43;9.70;;;12.80;99.90;;;;;;5070145;28;20450;-69
2021/05/11 06:07:25;;;;;;;11.00;8.40;;;12.90;99.90;;;;;;5069632;28;20462;-71
2021/05/11 06:09:54;;;;;;;11.87;8.60;;;12.90;99.90;;;;;;5117666;22;20985;-91
2021/05/11 06:12:23;;;;;;;10.07;8.00;;;13.00;99.90;;;;;;5085103;28;20771;-90
2021/05/11 06:15:03;;;;;;;12.90;9.97;;;13.00;99.90;;;;;;5092382;28;20521;-89
2021/05/11 06:17:29;;;;;;;14.00;10.10;;;13.00;99.90;;;;;;5093934;28;20580;-90
2021/05/11 06:19:55;;;;;;;11.67;9.20;;;13.00;99.90;;;;;;5093513;28;20922;-89
2021/05/11 06:22:22;;;;;;;14.27;10.10;;;13.00;99.90;;;;;;5094501;28;20215;-90
2021/05/11 06:24:48;;;;;;;12.50;9.07;;;13.10;99.90;;;;;;5093525;28;20458;-90
2021/05/11 06:27:15;;;;;;;11.70;9.03;;;13.20;99.90;;;;;;5093950;28;20462;-91
2021/05/11 06:29:45;;;;;;;14.20;9.00;;;13.20;99.90;;;;;;5094278;28;20482;-90
2021/05/11 06:32:12;;;;;;;13.07;9.57;;;13.30;99.90;;;;;;5094473;28;20489;-91
2021/05/11 06:34:43;;;;;;;11.27;8.73;;;13.30;99.90;;;;;;5093598;28;20461;-90
2021/05/11 06:37:09;;;;;;;11.97;9.37;;;13.30;99.90;;;;;;5093872;28;20964;-90
2021/05/11 06:39:36;;;;;;;10.03;8.93;;;13.40;99.90;;;;;;5093822;28;20966;-89
2021/05/11 06:42:28;;;;;;;11.43;9.20;;;13.40;99.90;;;;;;5093836;28;20488;-90
2021/05/11 06:45:07;;;;;;;10.60;8.57;;;13.40;99.90;;;;;;5093133;28;20469;-92
2021/05/11 06:50:37;;;;;;;11.10;8.80;;;13.50;99.90;;;;;;5093566;28;20496;-90
2021/05/11 06:53:15;;;;;;;9.50;8.37;;;13.50;99.90;;;;;;5093864;28;20568;-89
2021/05/11 06:55:51;;;;;;;10.90;8.50;;;13.60;99.90;;;;;;5093370;28;20517;-90
2021/05/11 06:58:35;;;;;;;11.00;8.53;;;13.60;99.90;;;;;;5092887;28;20472;-91
2021/05/11 07:01:04;;;;;;;9.70;8.10;;;13.70;99.90;;;;;;5093152;28;20580;-90
2021/05/11 07:03:30;;;;;;;9.00;7.80;;;13.70;99.90;;;;;;5092679;28;20497;-92
2021/05/11 07:06:00;;;;;;;9.47;8.47;;;13.70;99.90;;;;;;5093346;28;20482;-91
2021/05/11 07:14:36;;;;;;;11.00;9.40;;;13.70;99.90;;;;;;5087860;28;20578;-68
2021/05/11 07:17:02;;;;;;;10.10;8.40;;;13.70;99.90;;;;;;5089089;28;21056;-69
2021/05/11 07:19:29;;;;;;;8.77;7.83;;;13.70;99.90;;;;;;5088745;28;20477;-69
2021/05/11 07:21:55;;;;;;;9.70;8.13;;;13.70;99.90;;;;;;5088878;28;20458;-69
2021/05/11 07:24:26;;;;;;;8.83;7.70;;;13.70;99.90;;;;;;5088910;28;20469;-69
2021/05/11 07:27:10;;;;;;;8.20;7.37;;;13.70;99.90;;;;;;5088876;28;20465;-69
2021/05/11 07:29:44;;;;;;;8.77;7.87;;;13.80;99.90;;;;;;5088603;28;20481;-68
2021/05/11 07:32:12;;;;;;;10.13;7.93;;;13.90;99.90;;;;;;5089376;28;20948;-68
2021/05/11 07:34:42;;;;;;;9.43;7.13;;;14.00;99.90;;;;;;5089124;28;20529;-68
2021/05/11 07:37:09;;;;;;;9.80;7.50;;;14.10;99.90;;;;;;5089098;28;21082;-68
2021/05/11 07:39:35;;;;;;;9.60;8.60;;;14.10;99.90;;;;;;5088647;28;20482;-68
2021/05/11 07:42:01;;;;;;;11.93;8.40;;;14.10;99.90;;;;;;5089339;28;20817;-68
2021/05/11 07:44:29;;;;;;;11.47;9.37;;;14.20;99.90;;;;;;5089153;28;20468;-68
2021/05/11 07:47:02;;;;;;;8.70;7.83;;;14.20;99.90;;;;;;5088905;28;20479;-68
2021/05/11 08:03:40;;;;;;;7.57;6.77;;;14.30;99.90;;;;;;5089071;28;20445;-68
2021/05/11 08:14:29;;;;;;;9.07;6.50;;;14.30;99.90;;;;;;5086379;28;20436;-68
2021/05/11 08:16:58;;;;;;;9.43;7.57;;;14.30;99.90;;;;;;5085232;28;20492;-68
2021/05/11 08:22:40;;;;;;;7.23;6.53;;;14.40;99.90;;;;;;5023586;28;20892;-69
2021/05/11 08:27:55;;;;;;;6.57;5.63;;;14.60;99.90;;;;;;5085947;28;20476;-67
2021/05/11 08:30:22;;;;;;;6.40;5.27;;;14.70;99.90;;;;;;5084386;28;20478;-67
2021/05/11 08:32:49;;;;;;;5.50;5.00;;;14.90;99.90;;;;;;5085146;28;20456;-67
2021/05/11 08:35:21;;;;;;;5.87;5.30;;;15.10;99.90;;;;;;5085819;28;20485;-68
2021/05/11 08:37:48;;;;;;;7.07;6.37;;;15.40;99.90;;;;;;5088532;28;20461;-68
2021/05/11 08:40:20;;;;;;;5.90;5.40;;;15.60;99.90;;;;;;5090228;28;20481;-68
2021/05/11 08:42:47;;;;;;;8.37;5.87;;;15.70;99.90;;;;;;5089360;28;20460;-68
2021/05/11 08:45:15;;;;;;;6.83;6.23;;;15.70;99.90;;;;;;5088332;28;20449;-68
2021/05/11 08:47:50;;;;;;;6.33;5.63;;;15.50;99.90;;;;;;5088037;28;20983;-67
2021/05/11 08:50:23;;;;;;;6.30;5.70;;;15.60;99.90;;;;;;5086505;28;20492;-69
2021/05/11 08:53:12;;;;;;;5.13;4.63;;;15.70;99.90;;;;;;5088089;28;20458;-68
2021/05/11 09:09:47;;;;;;;4.97;4.10;;;15.70;99.90;;;;;;5086499;28;20474;-68
2021/05/11 09:23:59;;;;;;;5.83;4.13;;;16.30;99.90;;;;;;5067208;28;20480;-68
2021/05/11 09:26:41;;;;;;;4.50;4.10;;;16.50;99.90;;;;;;5067831;28;20457;-66
2021/05/11 09:29:26;;;;;;;4.43;4.03;;;16.70;99.90;;;;;;5067234;28;20458;-67
2021/05/11 09:32:00;;;;;;;7.63;4.70;;;16.80;99.90;;;;;;5067126;28;20462;-67
2021/05/11 09:34:33;;;;;;;4.80;4.30;;;16.80;99.90;;;;;;5067881;28;20494;-67
2021/05/11 09:57:10;;;;;;;4.90;4.40;;;16.30;99.90;;;;;;5049938;28;20592;-67
2021/05/11 10:00:08;;;;;;;4.33;3.93;;;16.20;99.90;;;;;;5085731;28;20598;-67
2021/05/11 10:48:42;;;;;;;6.30;5.60;;;17.40;99.90;;;;;;5086050;28;20446;-69
2021/05/11 10:51:23;;;;;;;8.20;5.90;;;17.30;99.90;;;;;;5085984;28;20495;-67
2021/05/11 10:53:59;;;;;;;6.37;5.70;;;17.30;99.90;;;;;;5086251;28;20457;-69
2021/05/11 10:56:53;;;;;;;6.87;6.13;;;17.30;99.90;;;;;;5086098;28;20481;-68
2021/05/11 11:02:24;;;;;;;7.23;6.30;;;17.50;99.90;;;;;;5041013;28;20460;-67
2021/05/11 11:04:52;;;;;;;7.97;6.93;;;17.60;99.90;;;;;;5086031;28;20469;-67
2021/05/11 11:07:18;;;;;;;8.13;7.13;;;17.60;99.90;;;;;;5085896;28;20458;-68
2021/05/11 11:09:56;;;;;;;12.50;6.20;;;17.70;99.90;;;;;;5085275;28;20496;-67
2021/05/11 11:12:23;;;;;;;7.60;6.30;;;17.70;99.90;;;;;;5086010;28;20841;-67
2021/05/11 11:14:49;;;;;;;7.23;6.53;;;17.70;99.90;;;;;;5085356;28;20836;-67
2021/05/11 11:17:16;;;;;;;8.90;6.80;;;18.00;99.90;;;;;;5086187;28;20473;-67
2021/05/11 11:19:53;;;;;;;7.33;6.17;;;18.10;99.90;;;;;;5084959;28;21020;-68
2021/05/11 11:25:05;;;;;;;10.40;7.17;;;18.70;99.90;;;;;;5085796;28;20511;-68
2021/05/11 11:27:33;;;;;;;7.27;6.50;;;18.80;99.90;;;;;;5085709;28;20472;-67
2021/05/11 11:30:01;;;;;;;8.10;7.20;;;18.90;99.90;;;;;;5083257;28;20481;-67
2021/05/11 11:32:27;;;;;;;7.23;6.40;;;18.90;99.90;;;;;;5086508;28;20472;-68
2021/05/11 11:34:55;;;;;;;7.27;6.20;;;19.10;99.90;;;;;;5086086;28;20506;-68
2021/05/11 11:37:24;;;;;;;7.03;5.47;;;19.50;99.90;;;;;;5085830;28;20470;-69
2021/05/11 11:39:52;;;;;;;5.60;5.10;;;20.20;99.90;;;;;;5077309;28;20477;-68
2021/05/11 11:42:20;;;;;;;6.43;5.83;;;21.00;99.90;;;;;;5083835;28;20464;-68
2021/05/11 11:44:49;;;;;;;5.30;4.80;;;21.60;99.90;;;;;;5084185;28;20485;-68
2021/05/11 11:47:15;;;;;;;5.60;5.20;;;22.20;99.90;;;;;;5081856;28;20465;-68
2021/05/11 11:49:45;;;;;;;5.77;5.27;;;22.10;99.90;;;;;;5084969;28;20482;-68
2021/05/11 11:52:14;;;;;;;4.80;4.40;;;22.40;99.90;;;;;;5085443;28;20562;-68
2021/05/11 11:54:46;;;;;;;4.00;3.70;;;22.60;99.90;;;;;;5085684;28;20501;-68
2021/05/11 12:00:07;;;;;;;4.90;4.10;;;22.90;99.90;;;;;;5084201;28;20476;-68
2021/05/11 12:02:33;;;;;;;4.63;4.23;;;23.10;99.90;;;;;;5084005;28;20464;-68
2021/05/11 12:05:10;;;;;;;4.50;4.10;;;22.80;99.90;;;;;;5085319;28;20556;-66
2021/05/11 12:07:53;;;;;;;3.90;3.60;;;22.50;99.90;;;;;;5085441;28;20464;-68
2021/05/11 12:10:20;;;;;;;4.33;3.87;;;22.00;99.90;;;;;;5086325;28;20492;-69
2021/05/11 12:12:47;;;;;;;3.67;3.37;;;21.40;99.90;;;;;;5089484;28;20469;-68
2021/05/11 12:15:19;;;;;;;3.73;3.20;;;21.10;99.90;;;;;;5089742;28;20460;-68
2021/05/11 12:17:46;;;;;;;3.47;2.73;;;20.90;99.90;;;;;;5088810;28;20840;-69
2021/05/11 12:20:24;;;;;;;3.30;3.10;;;20.80;99.90;;;;;;5089327;28;20900;-70
2021/05/11 12:23:01;;;;;;;3.57;3.27;;;20.50;99.90;;;;;;5089351;28;20461;-70
2021/05/11 12:25:28;;;;;;;4.93;3.00;;;20.30;99.90;;;;;;5089571;28;20468;-71
2021/05/11 12:27:56;;;;;;;3.00;2.73;;;20.20;99.90;;;;;;5088230;28;20465;-72
2021/05/11 12:30:37;;;;;;;3.17;2.87;;;20.10;99.90;;;;;;5089171;28;20513;-71
2021/05/11 12:33:05;;;;;;;2.90;2.70;;;19.90;99.90;;;;;;5083724;28;20548;-72
2021/05/11 12:35:31;;;;;;;3.27;2.17;;;19.90;99.90;;;;;;5084700;28;20547;-73
2021/05/11 12:38:01;;;;;;;2.30;2.10;;;19.80;99.90;;;;;;5085477;28;20457;-71
2021/05/11 12:40:47;;;;;;;2.20;2.00;;;19.60;99.90;;;;;;5086432;28;20477;-70
2021/05/11 12:43:13;;;;;;;2.00;1.80;;;19.40;99.90;;;;;;5086847;28;20454;-70
2021/05/11 12:45:50;;;;;;;4.43;2.03;;;19.20;99.90;;;;;;5086738;28;20465;-70
2021/05/11 12:48:16;;;;;;;3.77;2.60;;;19.10;99.90;;;;;;5085930;28;20461;-71
2021/05/11 12:50:44;;;;;;;3.37;2.87;;;19.10;99.90;;;;;;5086358;28;20478;-72
2021/05/11 12:53:29;;;;;;;2.60;2.27;;;19.00;99.90;;;;;;5086790;28;20461;-71
2021/05/11 12:56:07;;;;;;;2.47;2.27;;;19.00;99.90;;;;;;5084261;28;20539;-71
2021/05/11 12:58:42;;;;;;;2.30;2.00;;;18.90;99.90;;;;;;5077816;28;20485;-71
2021/05/11 13:01:56;;;;;;;3.30;2.50;;;18.90;99.90;;;;;;5083132;28;20473;-72
2021/05/11 13:27:03;;;;;;;3.20;2.90;;;17.20;99.90;;;;;;5085654;28;21301;-68
2021/05/11 13:29:41;;;;;;;2.90;2.60;;;17.10;99.90;;;;;;5085568;28;20977;-70
2021/05/11 13:32:11;;;;;;;6.33;3.00;;;17.00;99.90;;;;;;5082851;28;21025;-70
2021/05/11 13:34:37;;;;;;;3.93;3.63;;;17.00;99.90;;;;;;5084633;28;20694;-71
2021/05/11 13:37:04;;;;;;;3.53;3.23;;;16.90;99.90;;;;;;5085321;28;20481;-70
2021/05/11 13:39:30;;;;;;;4.03;3.73;;;16.90;99.90;;;;;;5087183;28;20485;-70
2021/05/11 13:41:56;;;;;;;4.17;3.83;;;16.70;99.90;;;;;;5084822;28;20469;-70
2021/05/11 13:44:23;;;;;;;4.37;4.07;;;16.60;99.90;;;;;;5085943;28;20470;-70
2021/05/11 13:46:50;;;;;;;5.23;4.83;;;16.60;99.90;;;;;;5084740;28;20460;-69
2021/05/11 13:49:18;;;;;;;5.67;5.23;;;16.60;99.90;;;;;;5084827;28;20634;-69
2021/05/11 13:51:45;;;;;;;5.57;5.07;;;16.50;99.90;;;;;;5085422;28;20493;-71
2021/05/11 13:54:13;;;;;;;5.40;5.00;;;16.30;99.90;;;;;;5084809;28;20465;-70
2021/05/11 13:56:48;;;;;;;6.13;5.40;;;16.20;99.90;;;;;;5084270;28;20872;-71
2021/05/11 14:02:26;;;;;;;5.37;4.97;;;16.00;99.90;;;;;;5048242;28;20547;-70
2021/05/11 14:04:52;;;;;;;5.33;4.93;;;15.90;99.90;;;;;;5083167;28;20466;-71
2021/05/11 14:07:18;;;;;;;4.33;3.93;;;15.70;99.90;;;;;;5085605;28;20469;-70
2021/05/11 14:09:44;;;;;;;5.00;4.60;;;15.60;99.90;;;;;;5084961;28;20490;-71
2021/05/11 14:12:11;;;;;;;4.90;4.43;;;15.50;99.90;;;;;;5084037;28;20485;-70
2021/05/11 14:14:38;;;;;;;4.80;4.40;;;15.50;99.90;;;;;;5083485;28;20458;-70
2021/05/11 14:17:05;;;;;;;5.57;4.70;;;15.40;99.90;;;;;;5085416;28;20509;-70
2021/05/11 14:19:31;;;;;;;4.80;4.40;;;15.30;99.90;;;;;;5086170;28;20477;-70
2021/05/11 14:21:58;;;;;;;4.97;4.47;;;15.20;99.90;;;;;;5085310;28;20454;-71
2021/05/11 14:24:24;;;;;;;4.17;3.87;;;15.10;99.90;;;;;;5084373;28;20822;-71
2021/05/11 14:26:51;;;;;;;4.23;3.77;;;15.00;99.90;;;;;;5083492;28;20454;-70
2021/05/11 14:29:18;;;;;;;3.60;3.30;;;15.00;99.90;;;;;;5084224;28;20454;-70
2021/05/11 14:31:44;;;;;;;4.00;3.50;;;15.00;99.90;;;;;;5082511;28;20462;-71
2021/05/11 14:34:13;;;;;;;3.57;3.27;;;15.00;99.90;;;;;;5084724;28;20833;-69
2021/05/11 14:36:39;;;;;;;7.63;4.40;;;14.90;99.90;;;;;;5082507;28;20569;-71
2021/05/11 14:39:06;;;;;;;4.10;3.70;;;14.90;99.90;;;;;;5083490;28;20465;-70
2021/05/11 14:41:33;;;;;;;4.77;4.27;;;14.70;99.90;;;;;;5084814;28;20980;-70
2021/05/11 14:44:01;;;;;;;4.73;4.23;;;14.70;99.90;;;;;;5081327;28;20548;-71
2021/05/11 14:46:28;;;;;;;4.53;3.80;;;14.70;99.90;;;;;;5083847;28;20454;-71
2021/05/11 14:48:54;;;;;;;4.37;4.00;;;14.70;99.90;;;;;;5080616;28;20834;-68
2021/05/11 14:51:21;;;;;;;4.60;4.10;;;14.70;99.90;;;;;;5084293;28;21069;-69
2021/05/11 14:53:48;;;;;;;4.27;3.87;;;14.70;99.90;;;;;;5083132;28;20461;-68
2021/05/11 14:56:14;;;;;;;4.63;4.17;;;14.70;99.90;;;;;;5082933;28;20489;-71
2021/05/11 14:58:41;;;;;;;4.90;4.40;;;14.70;99.90;;;;;;5080084;28;20457;-68
2021/05/11 15:01:08;;;;;;;4.63;4.13;;;14.60;99.90;;;;;;5085297;28;20478;-70
2021/05/11 15:03:34;;;;;;;4.90;4.30;;;14.60;99.90;;;;;;5082137;28;20953;-70
2021/05/11 15:06:01;;;;;;;6.10;3.90;;;14.50;99.90;;;;;;5078437;28;21461;-71
2021/05/11 15:08:28;;;;;;;4.20;3.47;;;14.40;99.90;;;;;;5079652;28;20454;-70
2021/05/11 15:10:54;;;;;;;4.50;4.10;;;14.40;99.90;;;;;;5080378;28;20486;-68
2021/05/11 15:13:21;;;;;;;3.93;3.50;;;14.30;99.90;;;;;;5080555;28;20450;-68
2021/05/11 15:15:50;;;;;;;3.40;3.10;;;14.30;99.90;;;;;;5077440;28;20505;-68
2021/05/11 15:18:16;;;;;;;4.20;3.03;;;14.20;99.90;;;;;;5079370;28;20634;-71
2021/05/11 15:20:43;;;;;;;3.37;3.07;;;14.20;99.90;;;;;;5079491;28;20527;-72
2021/05/11 15:23:09;;;;;;;3.77;3.37;;;14.10;99.90;;;;;;5081618;28;21490;-73
2021/05/11 15:25:36;;;;;;;2.43;2.23;;;14.10;99.90;;;;;;5079297;28;20453;-72
2021/05/11 15:28:04;;;;;;;2.00;1.80;;;14.00;99.90;;;;;;5077149;28;20465;-71
2021/05/11 15:30:31;;;;;;;3.63;1.73;;;13.90;99.90;;;;;;5081237;28;20477;-68
2021/05/11 15:32:58;;;;;;;1.77;1.67;;;13.80;99.90;;;;;;5079394;28;20466;-68
2021/05/11 15:35:27;;;;;;;1.67;1.50;;;13.80;99.90;;;;;;5083466;28;20496;-68
2021/05/11 15:37:58;;;;;;;1.70;1.60;;;13.80;99.90;;;;;;5083005;28;20461;-68
2021/05/11 15:40:26;;;;;;;1.70;1.60;;;13.70;99.90;;;;;;5083524;28;21232;-67
2021/05/11 15:42:55;;;;;;;1.70;1.40;;;13.60;99.90;;;;;;5082188;28;20465;-67
2021/05/11 15:45:22;;;;;;;4.07;1.40;;;13.60;99.90;;;;;;5079345;28;21059;-68
2021/05/11 15:47:55;;;;;;;1.60;1.40;;;13.60;99.90;;;;;;5079421;28;20885;-68
2021/05/11 15:50:24;;;;;;;1.37;1.27;;;13.50;99.90;;;;;;5081995;28;20516;-68
2021/05/11 15:52:50;;;;;;;1.47;1.20;;;13.50;99.90;;;;;;5082964;28;20473;-68
2021/05/11 15:55:17;;;;;;;1.40;1.10;;;13.50;99.90;;;;;;5081849;28;21147;-69
2021/05/11 15:57:43;;;;;;;2.07;1.30;;;13.40;99.90;;;;;;5080675;28;20867;-69
2021/05/11 16:00:12;;;;;;;2.73;1.60;;;13.50;99.90;;;;;;5083281;28;20558;-72
2021/05/11 16:02:38;;;;;;;1.27;1.13;;;13.40;99.90;;;;;;5081995;28;20462;-71
2021/05/11 16:05:06;;;;;;;1.63;1.10;;;13.20;99.90;;;;;;5081942;28;20468;-71
2021/05/11 16:07:32;;;;;;;1.60;1.43;;;13.10;99.90;;;;;;5083175;28;20457;-69
2021/05/11 16:09:59;;;;;;;1.50;1.40;;;13.10;99.90;;;;;;5080645;28;20504;-69
2021/05/11 16:12:25;;;;;;;2.07;1.40;;;13.10;99.90;;;;;;5081670;28;20469;-73
2021/05/11 16:14:51;;;;;;;2.37;1.67;;;13.10;99.90;;;;;;5081228;28;20458;-70
2021/05/11 16:17:18;;;;;;;1.87;1.40;;;13.10;99.90;;;;;;5081936;28;20516;-70
2021/05/11 16:19:47;;;;;;;2.07;1.60;;;13.10;99.90;;;;;;5078465;28;20482;-71
2021/05/11 16:22:13;;;;;;;2.37;1.67;;;13.10;99.90;;;;;;5082334;28;20498;-72
2021/05/11 16:24:39;;;;;;;1.87;1.73;;;13.10;99.90;;;;;;5081504;28;20518;-71
2021/05/11 16:27:06;;;;;;;1.70;1.27;;;13.10;99.90;;;;;;5081589;28;20906;-72